Time;durP1;ratioP1;P1;durP2;ratioP2;P2;SDS_P1;SDS_P2;PMS_P1;PMS_P2;Temp;Humidity;BMP_temperature;BMP_pressure;BME280_temperature;BME280_humidity;BME280_pressure;Samples;Min_cycle;Max_cycle;Signal;HPM_P1;HPM_P2
2021/08/01 00:01:40;;;;;;;12.07;7.30;;;691.90;1561.60;;;;;;5136711;27;20025;-74
2021/08/01 00:04:06;;;;;;;17.60;8.27;;;691.90;1561.60;;;;;;5136926;27;20098;-74
2021/08/01 00:06:32;;;;;;;17.23;8.00;;;691.80;1561.60;;;;;;5136409;27;20035;-74
2021/08/01 00:08:58;;;;;;;18.15;8.73;;;691.90;1561.60;;;;;;5136612;27;20019;-74
2021/08/01 00:11:24;;;;;;;15.43;8.73;;;691.70;1561.60;;;;;;5136758;27;20144;-74
2021/08/01 00:13:49;;;;;;;15.95;7.57;;;691.70;1561.60;;;;;;5136500;27;20027;-74
2021/08/01 00:16:15;;;;;;;14.95;7.40;;;691.70;1561.60;;;;;;5136783;27;20098;-77
2021/08/01 00:18:41;;;;;;;9.75;7.47;;;691.70;1561.60;;;;;;5136374;27;20555;-74
2021/08/01 00:21:07;;;;;;;18.52;8.05;;;691.70;1587.20;;;;;;5136470;27;20022;-74
2021/08/01 00:23:34;;;;;;;15.40;8.05;;;691.70;1587.20;;;;;;5136268;27;20027;-74
2021/08/01 00:26:00;;;;;;;10.82;8.07;;;691.70;1587.20;;;;;;5136237;27;20027;-74
2021/08/01 00:28:26;;;;;;;17.77;7.95;;;691.60;1587.20;;;;;;5136153;27;20552;-73
2021/08/01 00:30:52;;;;;;;17.27;8.90;;;691.60;1587.20;;;;;;5136442;27;20034;-74
2021/08/01 00:33:18;;;;;;;14.48;8.00;;;691.50;1612.80;;;;;;5136409;27;20443;-80
2021/08/01 00:35:44;;;;;;;18.30;8.77;;;691.50;1612.80;;;;;;5136151;27;20042;-74
2021/08/01 00:38:10;;;;;;;19.67;8.82;;;691.50;1612.80;;;;;;5136235;27;20110;-74
2021/08/01 00:40:37;;;;;;;24.55;8.70;;;691.50;1612.80;;;;;;5136020;27;20038;-78
2021/08/01 00:43:03;;;;;;;21.92;8.73;;;691.40;1612.80;;;;;;5136385;27;20076;-74
2021/08/01 00:45:29;;;;;;;23.40;8.88;;;691.50;1587.20;;;;;;5135878;27;20102;-74
2021/08/01 00:47:55;;;;;;;19.88;8.32;;;691.50;1587.20;;;;;;5136629;27;20118;-73
2021/08/01 00:50:21;;;;;;;12.65;9.27;;;691.50;1587.20;;;;;;5135877;27;20019;-75
2021/08/01 00:52:50;;;;;;;14.48;8.20;;;691.50;1587.20;;;;;;5135820;27;20023;-74
2021/08/01 00:55:16;;;;;;;19.00;8.52;;;691.40;1587.20;;;;;;5135820;27;20424;-80
2021/08/01 00:57:41;;;;;;;18.05;9.52;;;691.30;1612.80;;;;;;5135774;27;20035;-74
2021/08/01 01:03:39;;;;;;;16.52;8.77;;;691.30;1612.80;;;;;;5121893;27;20039;-80
2021/08/01 01:06:13;;;;;;;23.17;9.20;;;691.20;1638.40;;;;;;5117526;27;20040;-74
2021/08/01 01:08:58;;;;;;;13.60;8.73;;;691.20;1638.40;;;;;;5135487;27;20027;-73
2021/08/01 01:11:29;;;;;;;21.73;9.38;;;691.20;1638.40;;;;;;5135364;27;20038;-74
2021/08/01 01:13:56;;;;;;;21.67;9.27;;;666.50;1664.00;;;;;;5135393;27;20041;-74
2021/08/01 01:16:24;;;;;;;19.27;8.95;;;666.40;1664.00;;;;;;5135301;27;20027;-74
2021/08/01 01:18:53;;;;;;;15.95;9.65;;;666.50;1638.40;;;;;;5135231;27;20039;-74
2021/08/01 01:21:25;;;;;;;42.70;10.77;;;666.40;1664.00;;;;;;5116784;27;20027;-80
2021/08/01 01:24:18;;;;;;;23.42;9.88;;;666.30;1689.60;;;;;;5116794;27;20435;-74
2021/08/01 01:27:03;;;;;;;24.80;10.90;;;666.30;1689.60;;;;;;5116752;27;20155;-74
2021/08/01 01:29:40;;;;;;;18.67;9.98;;;666.30;1689.60;;;;;;5135129;27;20361;-74
2021/08/01 01:32:16;;;;;;;18.10;10.75;;;666.20;1689.60;;;;;;5135058;27;20034;-74
2021/08/01 01:34:49;;;;;;;19.50;10.52;;;666.20;1689.60;;;;;;5135072;27;20027;-74
2021/08/01 01:37:17;;;;;;;;;;;666.20;1689.60;;;;;;5135341;27;20026;-79
2021/08/01 01:39:45;;;;;;;14.82;10.20;;;666.20;1689.60;;;;;;5134878;27;19910;-73
2021/08/01 01:42:13;;;;;;;19.02;11.20;;;666.10;1689.60;;;;;;5134941;27;20023;-74
2021/08/01 01:44:43;;;;;;;19.65;9.55;;;666.10;1689.60;;;;;;5134849;27;20022;-80
2021/08/01 01:47:09;;;;;;;18.73;9.48;;;666.00;1689.60;;;;;;5116384;27;20495;-74
2021/08/01 01:49:37;;;;;;;15.70;9.43;;;666.10;1689.60;;;;;;5135050;27;20015;-81
2021/08/01 01:52:04;;;;;;;13.57;8.60;;;666.10;1689.60;;;;;;5134798;27;20146;-78
2021/08/01 01:54:33;;;;;;;15.05;8.25;;;666.10;1664.00;;;;;;5134622;27;20115;-74
2021/08/01 01:56:59;;;;;;;14.57;8.63;;;666.10;1664.00;;;;;;5134887;27;20380;-73
2021/08/01 01:59:25;;;;;;;18.73;8.45;;;666.10;1664.00;;;;;;5134758;27;20053;-74
2021/08/01 02:01:51;;;;;;;16.70;8.20;;;666.00;1664.00;;;;;;5134664;27;20015;-78
2021/08/01 02:04:17;;;;;;;11.25;7.65;;;666.00;1664.00;;;;;;5134434;27;20072;-74
2021/08/01 02:06:43;;;;;;;10.15;7.78;;;666.00;1664.00;;;;;;5132030;27;20074;-74
2021/08/01 02:09:30;;;;;;;11.90;7.25;;;666.00;1664.00;;;;;;5134536;27;20026;-74
2021/08/01 02:12:22;;;;;;;10.95;7.30;;;666.00;1664.00;;;;;;5116141;28;20384;-74
2021/08/01 02:15:07;;;;;;;9.63;7.15;;;666.00;1664.00;;;;;;5134775;28;20023;-79
2021/08/01 02:17:56;;;;;;;13.55;7.50;;;665.80;1664.00;;;;;;5134411;28;20603;-74
2021/08/01 02:20:34;;;;;;;18.90;16.08;;;665.80;1664.00;;;;;;5134405;28;20105;-79
2021/08/01 02:23:01;;;;;;;12.00;8.40;;;665.80;1689.60;;;;;;5134555;28;20072;-74
2021/08/01 02:25:29;;;;;;;11.07;7.68;;;665.70;1689.60;;;;;;5134344;28;20077;-74
2021/08/01 02:27:56;;;;;;;12.52;8.13;;;665.80;1689.60;;;;;;5134295;28;20015;-74
2021/08/01 02:30:24;;;;;;;15.15;7.72;;;665.60;1689.60;;;;;;5134285;28;20019;-76
2021/08/01 02:32:50;;;;;;;13.73;7.72;;;665.60;1689.60;;;;;;5134282;28;20025;-78
2021/08/01 02:35:17;;;;;;;12.73;8.10;;;665.70;1689.60;;;;;;5134346;28;20028;-79
2021/08/01 02:37:45;;;;;;;13.20;7.93;;;665.60;1689.60;;;;;;5134107;28;20464;-73
2021/08/01 02:40:12;;;;;;;12.13;8.38;;;665.60;1664.00;;;;;;5134275;28;20015;-74
2021/08/01 02:42:41;;;;;;;11.70;7.68;;;665.60;1689.60;;;;;;5134221;28;20019;-74
2021/08/01 02:45:07;;;;;;;12.00;8.52;;;665.60;1664.00;;;;;;5134243;28;20027;-74
2021/08/01 02:47:34;;;;;;;13.15;8.85;;;665.60;1664.00;;;;;;5134248;28;20023;-74
2021/08/01 02:50:01;;;;;;;11.60;9.15;;;640.70;1638.40;;;;;;5134185;28;20019;-75
2021/08/01 02:52:32;;;;;;;15.85;8.57;;;640.90;1638.40;;;;;;5134148;28;20509;-74
2021/08/01 02:55:01;;;;;;;13.18;8.57;;;640.80;1664.00;;;;;;5134434;28;20026;-74
2021/08/01 02:57:30;;;;;;;15.02;9.15;;;640.80;1664.00;;;;;;5116481;28;20465;-79
2021/08/01 03:00:02;;;;;;;10.63;8.38;;;640.80;1638.40;;;;;;5134081;28;20432;-73
2021/08/01 03:02:29;;;;;;;14.82;8.02;;;640.80;1638.40;;;;;;5134236;28;20015;-74
2021/08/01 03:04:56;;;;;;;10.40;7.40;;;640.80;1638.40;;;;;;5133979;28;20106;-78
2021/08/01 03:07:22;;;;;;;9.90;7.18;;;640.80;1638.40;;;;;;5133789;28;20073;-74
2021/08/01 03:09:52;;;;;;;10.32;7.25;;;640.80;1612.80;;;;;;5133988;28;20020;-74
2021/08/01 03:12:18;;;;;;;9.90;6.40;;;640.80;1612.80;;;;;;5133988;28;20019;-79
2021/08/01 03:14:44;;;;;;;8.23;6.20;;;640.80;1612.80;;;;;;5134189;28;20372;-79
2021/08/01 03:17:09;;;;;;;10.23;5.60;;;640.70;1612.80;;;;;;5136032;27;20100;-79
2021/08/01 03:19:39;;;;;;;8.18;5.45;;;640.70;1587.20;;;;;;5137658;27;20058;-79
2021/08/01 03:22:05;;;;;;;11.02;5.68;;;640.70;1612.80;;;;;;5137549;27;20383;-74
2021/08/01 03:24:32;;;;;;;8.77;5.43;;;640.50;1612.80;;;;;;5137451;27;20039;-78
2021/08/01 03:26:58;;;;;;;8.13;5.35;;;640.60;1612.80;;;;;;5137713;27;20468;-74
2021/08/01 03:29:24;;;;;;;7.72;5.43;;;640.70;1612.80;;;;;;5137759;27;20035;-75
2021/08/01 03:31:50;;;;;;;9.77;5.05;;;640.70;1612.80;;;;;;5137394;27;20136;-74
2021/08/01 03:34:16;;;;;;;7.22;4.85;;;640.70;1612.80;;;;;;5137337;27;20102;-80
2021/08/01 03:36:42;;;;;;;12.45;5.22;;;640.60;1612.80;;;;;;5137433;27;20019;-74
2021/08/01 03:39:08;;;;;;;9.13;4.90;;;640.60;1587.20;;;;;;5138048;27;20035;-74
2021/08/01 03:41:34;;;;;;;6.32;4.80;;;640.60;1587.20;;;;;;5137233;27;20019;-74
2021/08/01 03:44:00;;;;;;;5.95;5.18;;;640.60;1587.20;;;;;;5119189;27;20164;-74
2021/08/01 03:46:26;;;;;;;6.10;5.07;;;640.60;1587.20;;;;;;5137115;27;20098;-74
2021/08/01 03:48:52;;;;;;;5.20;4.70;;;640.60;1587.20;;;;;;5137016;27;20034;-74
2021/08/01 03:51:18;;;;;;;6.68;4.80;;;640.50;1587.20;;;;;;5118542;27;20027;-79
2021/08/01 03:53:44;;;;;;;8.13;4.72;;;640.40;1612.80;;;;;;5137010;27;20091;-74
2021/08/01 03:56:10;;;;;;;8.27;5.00;;;640.50;1587.20;;;;;;5136994;27;20023;-73
2021/08/01 03:58:36;;;;;;;7.68;4.53;;;640.40;1612.80;;;;;;5137031;27;20038;-77
2021/08/01 04:01:02;;;;;;;7.05;4.47;;;640.50;1612.80;;;;;;5136845;27;20472;-74
2021/08/01 04:03:28;;;;;;;4.78;4.05;;;640.50;1587.20;;;;;;5136783;27;20023;-74
2021/08/01 04:05:54;;;;;;;9.43;3.92;;;640.50;1587.20;;;;;;5136514;27;20088;-74
2021/08/01 04:08:20;;;;;;;6.32;4.28;;;640.40;1612.80;;;;;;5136816;27;20084;-77
2021/08/01 04:10:46;;;;;;;9.07;4.35;;;640.30;1612.80;;;;;;5136641;27;20026;-80
2021/08/01 04:13:12;;;;;;;9.20;4.93;;;640.30;1612.80;;;;;;5136601;27;20106;-74
2021/08/01 04:15:38;;;;;;;6.22;4.20;;;640.30;1612.80;;;;;;5136568;27;20406;-74
2021/08/01 04:18:05;;;;;;;6.50;3.97;;;640.30;1612.80;;;;;;5136934;27;20035;-74
2021/08/01 04:20:31;;;;;;;8.13;4.20;;;640.30;1612.80;;;;;;5136511;27;20106;-74
2021/08/01 04:22:58;;;;;;;6.15;4.13;;;640.40;1612.80;;;;;;5136311;27;20024;-79
2021/08/01 04:25:24;;;;;;;10.32;4.22;;;640.50;1587.20;;;;;;5117956;27;20356;-78
2021/08/01 04:27:49;;;;;;;6.82;4.00;;;640.40;1587.20;;;;;;5135951;27;20034;-74
2021/08/01 04:30:15;;;;;;;7.50;3.95;;;640.50;1587.20;;;;;;5136076;27;20023;-79
2021/08/01 04:32:41;;;;;;;7.93;4.15;;;640.50;1587.20;;;;;;5136057;27;20016;-75
2021/08/01 04:35:08;;;;;;;5.47;3.88;;;640.60;1587.20;;;;;;5117723;27;20406;-79
2021/08/01 04:37:34;;;;;;;5.78;4.10;;;640.50;1587.20;;;;;;5135952;27;20053;-73
2021/08/01 04:40:00;;;;;;;5.88;4.20;;;640.30;1612.80;;;;;;5136007;27;20387;-76
2021/08/01 04:42:27;;;;;;;6.00;4.13;;;640.30;1612.80;;;;;;5117485;27;20015;-74
2021/08/01 04:44:53;;;;;;;10.38;4.05;;;640.40;1612.80;;;;;;5135800;27;20031;-79
2021/08/01 04:47:18;;;;;;;6.13;4.05;;;640.30;1612.80;;;;;;5136012;27;20034;-79
2021/08/01 04:49:44;;;;;;;5.28;3.90;;;640.40;1612.80;;;;;;5136127;27;20479;-80
2021/08/01 04:52:18;;;;;;;4.72;3.85;;;640.50;1612.80;;;;;;5135724;27;20027;-74
2021/08/01 04:54:45;;;;;;;7.88;3.90;;;640.50;1612.80;;;;;;5135078;27;20027;-74
2021/08/01 04:57:12;;;;;;;6.15;3.78;;;640.60;1587.20;;;;;;5135599;27;20430;-74
2021/08/01 04:59:38;;;;;;;6.03;4.10;;;640.60;1587.20;;;;;;5134677;27;20118;-74
2021/08/01 05:02:04;;;;;;;5.75;4.10;;;640.70;1612.80;;;;;;5135469;27;20051;-74
2021/08/01 05:04:30;;;;;;;8.45;4.03;;;640.60;1587.20;;;;;;5135631;27;20027;-79
2021/08/01 05:06:56;;;;;;;6.47;3.70;;;640.70;1587.20;;;;;;5135281;27;20080;-74
2021/08/01 05:09:22;;;;;;;8.23;4.00;;;640.70;1587.20;;;;;;5117010;27;20023;-73
2021/08/01 05:11:48;;;;;;;7.00;4.07;;;640.70;1612.80;;;;;;5135401;27;20031;-73
2021/08/01 05:14:14;;;;;;;6.78;4.00;;;640.80;1587.20;;;;;;5135353;27;20422;-74
2021/08/01 05:16:40;;;;;;;12.35;4.18;;;640.80;1612.80;;;;;;5135242;27;20375;-74
2021/08/01 05:19:06;;;;;;;7.72;4.10;;;640.80;1612.80;;;;;;5135252;27;20023;-74
2021/08/01 05:21:32;;;;;;;8.15;4.60;;;640.80;1612.80;;;;;;5135180;27;20100;-75
2021/08/01 05:23:58;;;;;;;6.13;4.45;;;640.80;1612.80;;;;;;5135226;27;20058;-73
2021/08/01 05:26:24;;;;;;;5.65;3.88;;;640.80;1612.80;;;;;;5135186;27;20016;-79
2021/08/01 05:28:50;;;;;;;7.15;3.85;;;640.80;1612.80;;;;;;5135118;27;20483;-73
2021/08/01 05:31:16;;;;;;;5.78;3.60;;;640.90;1612.80;;;;;;5135278;27;20034;-74
2021/08/01 05:33:42;;;;;;;8.57;4.53;;;640.90;1612.80;;;;;;5135605;27;20031;-74
2021/08/01 05:36:09;;;;;;;7.35;4.30;;;665.60;1638.40;;;;;;5116723;27;20087;-74
2021/08/01 05:38:36;;;;;;;5.47;4.40;;;665.60;1612.80;;;;;;5134291;27;20118;-80
2021/08/01 05:41:02;;;;;;;11.88;4.32;;;640.90;1612.80;;;;;;5134213;27;20034;-75
2021/08/01 05:43:28;;;;;;;7.88;4.55;;;665.60;1638.40;;;;;;5134836;27;20020;-74
2021/08/01 05:45:55;;;;;;;11.52;4.50;;;665.70;1638.40;;;;;;5134764;27;20022;-73
2021/08/01 05:48:21;;;;;;;6.53;4.38;;;665.70;1638.40;;;;;;5134701;27;20065;-73
2021/08/01 05:50:47;;;;;;;7.13;4.18;;;665.70;1638.40;;;;;;5134782;27;20015;-74
2021/08/01 05:53:14;;;;;;;10.77;4.38;;;665.70;1612.80;;;;;;5128074;27;20030;-74
2021/08/01 05:55:40;;;;;;;5.18;4.15;;;665.70;1638.40;;;;;;5128548;27;20110;-75
2021/08/01 05:58:06;;;;;;;7.82;4.53;;;665.70;1638.40;;;;;;5134557;27;20535;-75
2021/08/01 06:00:31;;;;;;;7.50;3.65;;;665.80;1612.80;;;;;;5134582;27;20102;-74
2021/08/01 06:02:57;;;;;;;10.85;4.60;;;665.90;1612.80;;;;;;5134733;27;20418;-74
2021/08/01 06:05:23;;;;;;;8.40;4.35;;;666.00;1612.80;;;;;;5134574;27;20372;-75
2021/08/01 06:07:49;;;;;;;5.50;4.13;;;666.00;1612.80;;;;;;5134307;27;20096;-75
2021/08/01 06:10:16;;;;;;;9.52;3.67;;;666.00;1612.80;;;;;;5116110;28;20043;-74
2021/08/01 06:12:42;;;;;;;9.95;4.22;;;666.20;1612.80;;;;;;5134618;27;20068;-73
2021/08/01 06:15:08;;;;;;;9.75;3.97;;;666.30;1612.80;;;;;;5134337;28;20084;-75
2021/08/01 06:17:34;;;;;;;12.55;4.53;;;666.30;1612.80;;;;;;5134117;28;20102;-80
2021/08/01 06:20:00;;;;;;;9.02;4.10;;;666.40;1587.20;;;;;;5132698;28;20369;-77
2021/08/01 06:22:26;;;;;;;8.30;4.57;;;666.40;1587.20;;;;;;5132636;28;20029;-74
2021/08/01 06:24:52;;;;;;;5.03;3.80;;;666.50;1587.20;;;;;;5132797;28;20023;-74
2021/08/01 06:27:18;;;;;;;11.00;4.35;;;666.50;1561.60;;;;;;5132910;28;20459;-74
2021/08/01 06:29:44;;;;;;;11.50;4.70;;;691.30;1561.60;;;;;;5114516;28;20038;-73
2021/08/01 06:32:10;;;;;;;14.73;4.45;;;691.30;1561.60;;;;;;5132910;28;20467;-73
2021/08/01 06:34:36;;;;;;;6.25;3.95;;;691.30;1561.60;;;;;;5133724;28;20027;-74
2021/08/01 06:37:02;;;;;;;4.93;3.80;;;691.40;1561.60;;;;;;5134160;28;20076;-73
2021/08/01 06:39:28;;;;;;;5.70;3.67;;;691.50;1561.60;;;;;;5133658;28;20030;-74
2021/08/01 06:41:54;;;;;;;10.63;4.05;;;691.70;1536.00;;;;;;5133953;28;20027;-74
2021/08/01 06:44:20;;;;;;;6.65;3.70;;;691.70;1536.00;;;;;;5115513;28;20391;-75
2021/08/01 06:46:45;;;;;;;6.90;4.13;;;691.80;1561.60;;;;;;5133900;28;20102;-74
2021/08/01 06:49:11;;;;;;;6.75;3.70;;;691.90;1536.00;;;;;;5115593;28;20418;-74
2021/08/01 06:51:37;;;;;;;4.07;3.53;;;692.00;1510.40;;;;;;5137164;27;20019;-74
2021/08/01 06:54:03;;;;;;;8.85;3.88;;;716.80;1561.60;;;;;;5137981;27;20031;-74
2021/08/01 06:56:30;;;;;;;9.98;3.78;;;716.80;1561.60;;;;;;5137853;27;20027;-74
2021/08/01 06:58:56;;;;;;;10.93;4.32;;;716.90;1536.00;;;;;;5138001;27;20031;-74
2021/08/01 07:01:22;;;;;;;9.15;4.57;;;717.00;1536.00;;;;;;5137888;27;20029;-75
2021/08/01 07:03:48;;;;;;;13.35;7.65;;;717.00;1536.00;;;;;;5138193;27;20383;-74
2021/08/01 07:06:14;;;;;;;4.85;3.83;;;717.20;1510.40;;;;;;5137567;27;20118;-73
2021/08/01 07:08:40;;;;;;;8.13;4.60;;;717.30;1536.00;;;;;;5137835;27;20114;-73
2021/08/01 07:11:06;;;;;;;26.25;4.72;;;717.30;1510.40;;;;;;5137733;27;20023;-80
2021/08/01 07:13:31;;;;;;;11.95;5.03;;;717.50;1510.40;;;;;;5119154;27;20384;-75
2021/08/01 07:16:04;;;;;;;7.28;5.18;;;717.50;1510.40;;;;;;5137611;27;20024;-73
2021/08/01 07:18:31;;;;;;;14.35;5.10;;;717.60;1510.40;;;;;;5137857;27;20035;-74
2021/08/01 07:20:58;;;;;;;14.88;4.68;;;717.70;1484.80;;;;;;5119155;27;20023;-78
2021/08/01 07:23:24;;;;;;;14.52;5.20;;;742.40;1536.00;;;;;;5119184;27;20023;-74
2021/08/01 07:25:50;;;;;;;13.75;4.95;;;742.40;1536.00;;;;;;5137514;27;20094;-74
2021/08/01 07:28:16;;;;;;;21.70;4.80;;;742.50;1561.60;;;;;;5125608;27;20097;-74
2021/08/01 07:30:42;;;;;;;16.35;4.97;;;742.50;1536.00;;;;;;5119594;27;20023;-74
2021/08/01 07:33:08;;;;;;;18.40;5.03;;;742.50;1561.60;;;;;;5129932;27;20031;-75
2021/08/01 07:35:34;;;;;;;13.82;5.05;;;742.60;1536.00;;;;;;5118608;27;20030;-82
2021/08/01 07:38:00;;;;;;;8.80;4.85;;;742.60;1536.00;;;;;;5136644;27;20173;-78
2021/08/01 07:40:27;;;;;;;17.63;5.50;;;742.70;1510.40;;;;;;5134462;27;20090;-75
2021/08/01 07:42:53;;;;;;;12.68;5.40;;;742.80;1536.00;;;;;;5126224;27;20379;-77
2021/08/01 07:45:29;;;;;;;8.90;5.15;;;742.90;1510.40;;;;;;5123483;27;20015;-76
2021/08/01 07:47:55;;;;;;;18.45;5.70;;;742.90;1484.80;;;;;;5105719;27;20061;-75
2021/08/01 07:50:21;;;;;;;17.75;6.00;;;742.90;1536.00;;;;;;5123695;27;20020;-76
2021/08/01 07:52:47;;;;;;;18.63;5.85;;;742.90;1510.40;;;;;;5125181;27;20015;-74
2021/08/01 07:55:16;;;;;;;17.90;5.43;;;742.90;1510.40;;;;;;5123209;27;20483;-75
2021/08/01 07:57:43;;;;;;;16.25;5.45;;;743.00;1510.40;;;;;;5121280;27;20032;-76
2021/08/01 08:00:11;;;;;;;16.50;5.38;;;743.00;1536.00;;;;;;5124717;27;20098;-75
2021/08/01 08:02:37;;;;;;;14.68;5.63;;;743.00;1536.00;;;;;;5122199;27;20039;-77
2021/08/01 08:05:03;;;;;;;22.08;6.35;;;743.00;1536.00;;;;;;5125507;27;20058;-80
2021/08/01 08:07:29;;;;;;;15.82;5.80;;;743.00;1510.40;;;;;;5095753;28;20036;-75
2021/08/01 08:09:55;;;;;;;15.88;5.32;;;743.00;1510.40;;;;;;5094378;28;20457;-74
2021/08/01 08:12:21;;;;;;;22.55;5.82;;;743.10;1484.80;;;;;;5091628;28;20073;-74
2021/08/01 08:14:47;;;;;;;24.92;5.88;;;743.00;1510.40;;;;;;5092863;28;20085;-74
2021/08/01 08:17:13;;;;;;;27.10;6.15;;;743.10;1536.00;;;;;;5080930;28;20480;-78
2021/08/01 08:19:39;;;;;;;19.40;5.90;;;743.10;1536.00;;;;;;5090930;28;20020;-73
2021/08/01 08:22:06;;;;;;;15.68;6.05;;;743.10;1536.00;;;;;;5093858;28;20020;-74
2021/08/01 08:24:32;;;;;;;16.15;5.93;;;743.10;1536.00;;;;;;5093395;28;20020;-74
2021/08/01 08:26:57;;;;;;;10.32;5.82;;;743.10;1536.00;;;;;;5093561;28;20008;-74
2021/08/01 08:29:23;;;;;;;8.75;5.28;;;743.10;1510.40;;;;;;5093324;28;20031;-74
2021/08/01 08:31:53;;;;;;;15.30;6.28;;;743.10;1510.40;;;;;;5085876;28;20377;-74
2021/08/01 08:34:22;;;;;;;13.68;5.88;;;743.10;1510.40;;;;;;5089904;28;20395;-74
2021/08/01 08:36:49;;;;;;;11.80;6.30;;;743.20;1510.40;;;;;;5092183;28;20020;-74
2021/08/01 08:39:20;;;;;;;17.17;6.07;;;743.20;1510.40;;;;;;5091814;28;20035;-75
2021/08/01 08:41:46;;;;;;;12.98;6.00;;;743.20;1510.40;;;;;;5091330;28;20020;-74
2021/08/01 08:44:13;;;;;;;18.73;6.18;;;743.20;1510.40;;;;;;5093814;28;20354;-74
2021/08/01 08:46:39;;;;;;;14.32;6.05;;;743.20;1510.40;;;;;;5093950;28;20050;-74
2021/08/01 08:49:13;;;;;;;15.73;6.28;;;743.20;1536.00;;;;;;5093556;28;20032;-75
2021/08/01 08:51:44;;;;;;;14.95;6.45;;;743.10;1536.00;;;;;;5090789;28;20032;-73
2021/08/01 08:54:14;;;;;;;26.60;6.47;;;743.20;1536.00;;;;;;5094495;28;20027;-75
2021/08/01 08:56:41;;;;;;;23.50;6.18;;;743.20;1561.60;;;;;;5094151;28;20038;-79
2021/08/01 08:59:10;;;;;;;31.20;6.95;;;743.20;1561.60;;;;;;5094373;28;20036;-75
2021/08/01 09:01:39;;;;;;;22.27;6.53;;;743.20;1561.60;;;;;;5094056;28;20016;-75
2021/08/01 09:04:05;;;;;;;18.15;6.43;;;743.30;1561.60;;;;;;5092818;28;20028;-74
2021/08/01 09:06:31;;;;;;;37.42;7.22;;;768.00;1536.00;;;;;;5100082;27;20060;-74
2021/08/01 09:08:57;;;;;;;19.20;6.95;;;768.00;1536.00;;;;;;5114600;28;20011;-74
2021/08/01 09:11:24;;;;;;;22.20;6.57;;;768.00;1561.60;;;;;;5114531;28;20092;-74
2021/08/01 09:13:52;;;;;;;19.15;6.47;;;743.30;1536.00;;;;;;5115858;27;20023;-75
2021/08/01 09:16:20;;;;;;;13.18;6.60;;;768.00;1561.60;;;;;;5134989;27;20023;-75
2021/08/01 09:18:48;;;;;;;29.25;6.57;;;768.00;1561.60;;;;;;5134501;27;20031;-75
2021/08/01 09:21:34;;;;;;;17.27;6.20;;;768.00;1561.60;;;;;;5135104;27;20033;-75
2021/08/01 09:24:00;;;;;;;16.45;7.00;;;768.10;1536.00;;;;;;5134550;27;20024;-74
2021/08/01 09:26:44;;;;;;;12.55;6.10;;;768.10;1536.00;;;;;;5134904;27;20030;-79
2021/08/01 09:29:10;;;;;;;11.52;5.85;;;768.00;1536.00;;;;;;5134425;27;20098;-75
2021/08/01 09:31:37;;;;;;;18.25;5.90;;;768.00;1561.60;;;;;;5116566;27;20099;-74
2021/08/01 09:34:27;;;;;;;22.55;7.28;;;768.10;1587.20;;;;;;5134475;27;20019;-80
2021/08/01 09:37:04;;;;;;;12.00;5.75;;;768.10;1536.00;;;;;;5134507;27;20417;-78
2021/08/01 09:39:39;;;;;;;13.38;6.30;;;768.10;1561.60;;;;;;5134389;27;20083;-76
2021/08/01 09:42:05;;;;;;;11.77;5.93;;;768.10;1536.00;;;;;;5130906;27;20026;-75
2021/08/01 09:44:35;;;;;;;7.95;6.15;;;768.10;1536.00;;;;;;5122797;27;20034;-74
2021/08/01 09:47:01;;;;;;;10.75;6.18;;;768.10;1536.00;;;;;;5113417;28;20024;-74
2021/08/01 09:49:31;;;;;;;13.68;6.25;;;768.00;1536.00;;;;;;5113730;28;20495;-73
2021/08/01 09:51:59;;;;;;;9.65;6.25;;;768.00;1536.00;;;;;;5113326;28;20498;-74
2021/08/01 09:54:48;;;;;;;6.65;5.95;;;768.00;1536.00;;;;;;5119291;27;20031;-76
2021/08/01 09:57:18;;;;;;;15.52;6.43;;;768.00;1561.60;;;;;;5122544;27;20028;-75
2021/08/01 09:59:48;;;;;;;15.13;6.43;;;768.00;1561.60;;;;;;5123826;27;20026;-74
2021/08/01 10:02:14;;;;;;;16.27;6.55;;;768.10;1561.60;;;;;;5122039;27;20020;-74
2021/08/01 10:04:40;;;;;;;16.05;6.68;;;768.10;1561.60;;;;;;5122782;27;20035;-76
2021/08/01 10:07:10;;;;;;;12.55;6.35;;;768.10;1561.60;;;;;;5122744;27;20043;-75
2021/08/01 10:09:38;;;;;;;11.13;5.80;;;768.10;1561.60;;;;;;5124537;27;20008;-74
2021/08/01 10:12:05;;;;;;;9.02;5.63;;;768.10;1561.60;;;;;;5121247;27;20023;-75
2021/08/01 10:14:31;;;;;;;14.07;5.95;;;768.10;1510.40;;;;;;5096158;28;20019;-74
2021/08/01 10:16:58;;;;;;;10.02;6.13;;;768.20;1510.40;;;;;;5110798;28;20539;-80
2021/08/01 10:19:24;;;;;;;14.95;6.30;;;768.20;1510.40;;;;;;5111396;28;20028;-74
2021/08/01 10:21:54;;;;;;;14.95;5.95;;;768.20;1510.40;;;;;;5122225;28;20050;-74
2021/08/01 10:24:41;;;;;;;18.08;6.05;;;768.20;1510.40;;;;;;5121083;28;20019;-73
2021/08/01 10:27:08;;;;;;;18.23;5.72;;;768.20;1484.80;;;;;;5126590;27;20034;-76
2021/08/01 10:30:01;;;;;;;13.07;5.55;;;768.20;1510.40;;;;;;5125131;27;20011;-74
2021/08/01 10:32:31;;;;;;;13.25;5.90;;;768.20;1484.80;;;;;;5114989;27;20030;-78
2021/08/01 10:35:16;;;;;;;20.45;6.70;;;768.20;1408.00;;;;;;5124813;27;20071;-77
2021/08/01 10:37:48;;;;;;;15.38;6.05;;;768.20;1459.20;;;;;;5125662;27;20062;-74
2021/08/01 10:40:19;;;;;;;15.40;5.93;;;768.20;1433.60;;;;;;5125315;27;20110;-74
2021/08/01 10:42:53;;;;;;;14.68;6.10;;;768.20;1433.60;;;;;;5114249;27;20425;-74
2021/08/01 10:45:20;;;;;;;13.73;6.47;;;768.30;1459.20;;;;;;5125154;27;20012;-74
2021/08/01 10:47:49;;;;;;;21.58;6.93;;;768.30;1433.60;;;;;;5126390;27;20038;-75
2021/08/01 10:50:24;;;;;;;38.78;7.55;;;768.30;1382.40;;;;;;5127425;27;20054;-74
2021/08/01 10:53:10;;;;;;;42.60;7.68;;;768.30;1408.00;;;;;;5124433;27;20098;-74
2021/08/01 10:55:36;;;;;;;23.42;6.20;;;768.40;1433.60;;;;;;5127127;27;20026;-74
2021/08/01 10:58:16;;;;;;;24.55;6.97;;;768.40;1382.40;;;;;;5124911;27;20035;-73
2021/08/01 11:00:59;;;;;;;22.73;6.80;;;768.40;1408.00;;;;;;5125478;27;20471;-74
2021/08/01 11:03:25;;;;;;;14.00;6.32;;;768.50;1433.60;;;;;;5125262;27;20020;-74
2021/08/01 11:05:51;;;;;;;13.50;6.47;;;768.50;1408.00;;;;;;5116630;27;20107;-75
2021/08/01 11:08:17;;;;;;;12.57;6.10;;;768.50;1382.40;;;;;;5124205;27;20020;-76
2021/08/01 11:10:44;;;;;;;19.58;6.35;;;768.50;1408.00;;;;;;5126549;27;20030;-75
2021/08/01 11:13:29;;;;;;;14.40;6.47;;;768.50;1408.00;;;;;;5125967;27;20020;-76
2021/08/01 11:15:55;;;;;;;12.05;5.70;;;768.50;1356.80;;;;;;5129311;27;20399;-75
2021/08/01 11:18:31;;;;;;;15.32;6.40;;;768.70;1382.40;;;;;;5128165;27;20045;-77
2021/08/01 11:21:03;;;;;;;12.90;6.05;;;768.70;1382.40;;;;;;5104418;27;20529;-74
2021/08/01 11:23:44;;;;;;;16.63;6.03;;;768.70;1382.40;;;;;;5128201;27;20023;-73
2021/08/01 11:26:20;;;;;;;14.52;6.28;;;768.70;1408.00;;;;;;5129843;27;20028;-78
2021/08/01 11:29:04;;;;;;;11.27;5.35;;;768.70;1382.40;;;;;;5127596;27;20024;-74
2021/08/01 11:31:30;;;;;;;14.95;6.15;;;768.70;1356.80;;;;;;5118783;27;20031;-74
2021/08/01 11:33:56;;;;;;;9.57;5.78;;;768.70;1382.40;;;;;;5116567;28;20020;-76
2021/08/01 11:36:27;;;;;;;15.80;5.68;;;768.70;1356.80;;;;;;5097087;28;20034;-75
2021/08/01 11:38:53;;;;;;;13.80;5.63;;;768.70;1382.40;;;;;;5097848;28;20080;-74
2021/08/01 11:41:40;;;;;;;113.43;11.40;;;768.80;1356.80;;;;;;5122478;27;20023;-73
2021/08/01 11:44:15;;;;;;;30.15;7.00;;;768.90;1356.80;;;;;;5134051;27;20046;-74
2021/08/01 11:47:08;;;;;;;29.00;6.28;;;768.90;1331.20;;;;;;5118605;27;20023;-74
2021/08/01 11:49:42;;;;;;;22.08;6.07;;;768.90;1331.20;;;;;;5118555;27;20365;-74
2021/08/01 11:52:08;;;;;;;20.50;7.00;;;793.60;1356.80;;;;;;5128846;27;20069;-73
2021/08/01 11:54:42;;;;;;;25.02;6.40;;;793.60;1356.80;;;;;;5125705;27;20023;-73
2021/08/01 11:57:10;;;;;;;17.90;6.07;;;793.60;1331.20;;;;;;5105962;27;20023;-75
2021/08/01 11:59:37;;;;;;;12.68;5.85;;;793.60;1356.80;;;;;;5107681;28;20053;-74
2021/08/01 12:02:08;;;;;;;17.35;6.20;;;793.60;1305.60;;;;;;5124090;27;20016;-73
2021/08/01 12:04:34;;;;;;;20.67;5.95;;;793.60;1331.20;;;;;;5125803;27;20420;-81
2021/08/01 12:07:00;;;;;;;12.30;6.18;;;793.60;1331.20;;;;;;5124644;27;20066;-75
2021/08/01 12:09:26;;;;;;;11.73;5.60;;;793.60;1331.20;;;;;;5126192;27;20364;-74
2021/08/01 12:11:58;;;;;;;73.38;10.18;;;768.90;1331.20;;;;;;5107331;27;20015;-75
2021/08/01 12:14:31;;;;;;;39.42;7.07;;;768.90;1331.20;;;;;;5124053;27;20098;-74
2021/08/01 12:17:06;;;;;;;94.28;11.27;;;768.90;1331.20;;;;;;5125023;27;20012;-74
2021/08/01 12:19:45;;;;;;;35.75;8.20;;;768.90;1331.20;;;;;;5124898;27;20039;-74
2021/08/01 12:22:19;;;;;;;57.40;9.55;;;768.80;1331.20;;;;;;5125239;27;20024;-74